Little Valley, California
Current Conditions -  °F | °C
As of 2:55 AM on Saturday 25 Oct 2014 (Local Time) from KAAT Reporting Station
Clear Clear  
Wind Chill: 50°   Ceiling: Unl
Heat Index: 50°   Visibility: 10mi
Dew Point: 31°   Wind: 5mph
Humidity: 48%   Direction: NA
Pressure: 29.85"   Gusts: NA
Location:  40.9954°N, 121.135°W
Report Text: KAAT 250955Z AUTO VRB04KT 10SM CLR 10/M01 A2985 RMK AO2 SLP074 T01001006
Loading
Personal Weather Stations






























Interactive Weather Map
Tropical Storm Tracking
New forecast layout! Learn more

10-Day Weather Forecast

Advertisements
Track Severe Weather on mobile